sensor_id;sensor_type;location;lat;lon;timestamp;temperature;humidity
23991;DHT22;12205;50.600;4.608;2023-05-07T00:00:41;14.80;99.90
23991;DHT22;12205;50.600;4.608;2023-05-07T00:03:08;14.80;99.90
23991;DHT22;12205;50.600;4.608;2023-05-07T00:05:36;14.80;99.90
23991;DHT22;12205;50.600;4.608;2023-05-07T00:08:04;14.80;99.90
23991;DHT22;12205;50.600;4.608;2023-05-07T00:10:31;14.90;99.90
23991;DHT22;12205;50.600;4.608;2023-05-07T00:13:00;14.90;99.90
23991;DHT22;12205;50.600;4.608;2023-05-07T00:15:26;14.90;99.90
23991;DHT22;12205;50.600;4.608;2023-05-07T00:17:53;14.90;99.90
23991;DHT22;12205;50.600;4.608;2023-05-07T00:20:20;14.90;99.90
23991;DHT22;12205;50.600;4.608;2023-05-07T00:22:47;15.00;99.90
23991;DHT22;12205;50.600;4.608;2023-05-07T00:25:14;15.00;99.90
23991;DHT22;12205;50.600;4.608;2023-05-07T00:27:41;15.00;99.90
23991;DHT22;12205;50.600;4.608;2023-05-07T00:30:10;15.00;99.90
23991;DHT22;12205;50.600;4.608;2023-05-07T00:32:38;15.00;99.90
23991;DHT22;12205;50.600;4.608;2023-05-07T00:35:06;15.00;99.90
23991;DHT22;12205;50.600;4.608;2023-05-07T00:37:33;15.00;99.90
23991;DHT22;12205;50.600;4.608;2023-05-07T00:40:00;15.00;99.90
23991;DHT22;12205;50.600;4.608;2023-05-07T00:42:30;15.10;99.90
23991;DHT22;12205;50.600;4.608;2023-05-07T00:44:58;15.10;99.90
23991;DHT22;12205;50.600;4.608;2023-05-07T00:47:26;15.00;99.90
23991;DHT22;12205;50.600;4.608;2023-05-07T00:49:53;15.10;99.90
23991;DHT22;12205;50.600;4.608;2023-05-07T00:52:21;15.10;99.90
23991;DHT22;12205;50.600;4.608;2023-05-07T00:54:51;15.10;99.90
23991;DHT22;12205;50.600;4.608;2023-05-07T00:57:19;15.10;99.90
23991;DHT22;12205;50.600;4.608;2023-05-07T00:59:47;15.10;99.90
23991;DHT22;12205;50.600;4.608;2023-05-07T01:02:14;15.10;99.90
23991;DHT22;12205;50.600;4.608;2023-05-07T01:04:43;15.10;99.90
23991;DHT22;12205;50.600;4.608;2023-05-07T01:07:10;15.20;99.90
23991;DHT22;12205;50.600;4.608;2023-05-07T01:09:37;15.20;99.90
23991;DHT22;12205;50.600;4.608;2023-05-07T01:12:04;15.20;99.90
23991;DHT22;12205;50.600;4.608;2023-05-07T01:14:33;15.10;99.90
23991;DHT22;12205;50.600;4.608;2023-05-07T01:17:00;15.20;99.90
23991;DHT22;12205;50.600;4.608;2023-05-07T01:19:29;15.10;99.90
23991;DHT22;12205;50.600;4.608;2023-05-07T01:22:02;15.20;99.90
23991;DHT22;12205;50.600;4.608;2023-05-07T01:24:32;15.10;99.90
23991;DHT22;12205;50.600;4.608;2023-05-07T01:26:59;15.10;99.90
23991;DHT22;12205;50.600;4.608;2023-05-07T01:29:30;15.20;99.90
23991;DHT22;12205;50.600;4.608;2023-05-07T01:31:59;15.10;99.90
23991;DHT22;12205;50.600;4.608;2023-05-07T01:34:28;15.10;99.90
23991;DHT22;12205;50.600;4.608;2023-05-07T01:36:57;15.10;99.90
23991;DHT22;12205;50.600;4.608;2023-05-07T01:39:26;15.10;99.90
23991;DHT22;12205;50.600;4.608;2023-05-07T01:41:55;15.10;99.90
23991;DHT22;12205;50.600;4.608;2023-05-07T01:44:24;15.10;99.90
23991;DHT22;12205;50.600;4.608;2023-05-07T01:46:51;15.10;99.90
23991;DHT22;12205;50.600;4.608;2023-05-07T01:49:19;15.10;99.90
23991;DHT22;12205;50.600;4.608;2023-05-07T01:51:46;15.10;99.90
23991;DHT22;12205;50.600;4.608;2023-05-07T01:54:13;15.10;99.90
23991;DHT22;12205;50.600;4.608;2023-05-07T01:56:41;15.10;99.90
23991;DHT22;12205;50.600;4.608;2023-05-07T01:59:09;15.10;99.90
23991;DHT22;12205;50.600;4.608;2023-05-07T02:01:36;15.10;99.90
23991;DHT22;12205;50.600;4.608;2023-05-07T02:04:03;15.10;99.90
23991;DHT22;12205;50.600;4.608;2023-05-07T02:06:31;15.10;99.90
23991;DHT22;12205;50.600;4.608;2023-05-07T02:09:03;15.10;99.90
23991;DHT22;12205;50.600;4.608;2023-05-07T02:11:30;15.00;99.90
23991;DHT22;12205;50.600;4.608;2023-05-07T02:13:57;15.00;99.90
23991;DHT22;12205;50.600;4.608;2023-05-07T02:16:25;15.00;99.90
23991;DHT22;12205;50.600;4.608;2023-05-07T02:18:53;15.00;99.90
23991;DHT22;12205;50.600;4.608;2023-05-07T02:21:20;15.00;99.90
23991;DHT22;12205;50.600;4.608;2023-05-07T02:23:47;15.00;99.90
23991;DHT22;12205;50.600;4.608;2023-05-07T02:26:14;14.90;99.90
23991;DHT22;12205;50.600;4.608;2023-05-07T02:28:41;14.90;99.90
23991;DHT22;12205;50.600;4.608;2023-05-07T02:31:08;14.90;99.90
23991;DHT22;12205;50.600;4.608;2023-05-07T02:33:36;14.90;99.90
23991;DHT22;12205;50.600;4.608;2023-05-07T02:36:07;14.90;99.90
23991;DHT22;12205;50.600;4.608;2023-05-07T02:38:36;14.80;99.90
23991;DHT22;12205;50.600;4.608;2023-05-07T02:41:03;14.80;99.90
23991;DHT22;12205;50.600;4.608;2023-05-07T02:43:30;14.80;99.90
23991;DHT22;12205;50.600;4.608;2023-05-07T02:46:02;14.70;99.90
23991;DHT22;12205;50.600;4.608;2023-05-07T02:48:29;14.70;99.90
23991;DHT22;12205;50.600;4.608;2023-05-07T02:50:57;14.70;99.90
23991;DHT22;12205;50.600;4.608;2023-05-07T02:53:25;14.70;99.90
23991;DHT22;12205;50.600;4.608;2023-05-07T02:55:53;14.60;99.90
23991;DHT22;12205;50.600;4.608;2023-05-07T02:58:20;14.60;99.90
23991;DHT22;12205;50.600;4.608;2023-05-07T03:00:47;14.50;99.90
23991;DHT22;12205;50.600;4.608;2023-05-07T03:03:32;14.60;99.90
23991;DHT22;12205;50.600;4.608;2023-05-07T03:06:00;14.50;99.90
23991;DHT22;12205;50.600;4.608;2023-05-07T03:08:27;14.50;99.90
23991;DHT22;12205;50.600;4.608;2023-05-07T03:10:54;14.40;99.90
23991;DHT22;12205;50.600;4.608;2023-05-07T03:13:21;14.40;99.90
23991;DHT22;12205;50.600;4.608;2023-05-07T03:15:48;14.40;99.90
23991;DHT22;12205;50.600;4.608;2023-05-07T03:18:15;14.40;99.90
23991;DHT22;12205;50.600;4.608;2023-05-07T03:20:42;14.40;99.90
23991;DHT22;12205;50.600;4.608;2023-05-07T03:23:11;14.40;99.90
23991;DHT22;12205;50.600;4.608;2023-05-07T03:25:38;14.40;99.90
23991;DHT22;12205;50.600;4.608;2023-05-07T03:28:04;14.40;99.90
23991;DHT22;12205;50.600;4.608;2023-05-07T03:30:39;14.40;99.90
23991;DHT22;12205;50.600;4.608;2023-05-07T03:33:06;14.40;99.90
23991;DHT22;12205;50.600;4.608;2023-05-07T03:35:33;14.40;99.90
23991;DHT22;12205;50.600;4.608;2023-05-07T03:38:01;14.40;99.90
23991;DHT22;12205;50.600;4.608;2023-05-07T03:40:32;14.40;99.90
23991;DHT22;12205;50.600;4.608;2023-05-07T03:43:00;14.40;99.90
23991;DHT22;12205;50.600;4.608;2023-05-07T03:45:29;14.40;99.90
23991;DHT22;12205;50.600;4.608;2023-05-07T03:48:05;14.50;99.90
23991;DHT22;12205;50.600;4.608;2023-05-07T03:50:32;14.50;99.90
23991;DHT22;12205;50.600;4.608;2023-05-07T03:52:59;14.40;99.90
23991;DHT22;12205;50.600;4.608;2023-05-07T03:55:29;14.50;99.90
23991;DHT22;12205;50.600;4.608;2023-05-07T03:58:00;14.50;99.90
23991;DHT22;12205;50.600;4.608;2023-05-07T04:00:28;14.50;99.90
23991;DHT22;12205;50.600;4.608;2023-05-07T04:02:59;14.50;99.90
23991;DHT22;12205;50.600;4.608;2023-05-07T04:05:29;14.50;99.90
23991;DHT22;12205;50.600;4.608;2023-05-07T04:08:00;14.60;99.90
23991;DHT22;12205;50.600;4.608;2023-05-07T04:10:35;14.60;99.90
23991;DHT22;12205;50.600;4.608;2023-05-07T04:13:08;14.60;99.90
23991;DHT22;12205;50.600;4.608;2023-05-07T04:15:36;14.60;99.90
23991;DHT22;12205;50.600;4.608;2023-05-07T04:18:06;14.60;99.90
23991;DHT22;12205;50.600;4.608;2023-05-07T04:20:34;14.70;99.90
23991;DHT22;12205;50.600;4.608;2023-05-07T04:23:03;14.70;99.90
23991;DHT22;12205;50.600;4.608;2023-05-07T04:25:31;14.70;99.90
23991;DHT22;12205;50.600;4.608;2023-05-07T04:28:10;14.70;99.90
23991;DHT22;12205;50.600;4.608;2023-05-07T04:30:38;14.70;99.90
23991;DHT22;12205;50.600;4.608;2023-05-07T04:33:07;14.80;99.90
23991;DHT22;12205;50.600;4.608;2023-05-07T04:35:35;14.80;99.90
23991;DHT22;12205;50.600;4.608;2023-05-07T04:38:03;14.80;99.90
23991;DHT22;12205;50.600;4.608;2023-05-07T04:40:30;14.80;99.90
23991;DHT22;12205;50.600;4.608;2023-05-07T04:42:58;14.80;99.90
23991;DHT22;12205;50.600;4.608;2023-05-07T04:45:28;14.80;99.90
23991;DHT22;12205;50.600;4.608;2023-05-07T04:47:55;14.90;99.90
23991;DHT22;12205;50.600;4.608;2023-05-07T04:50:22;14.90;99.90
23991;DHT22;12205;50.600;4.608;2023-05-07T04:52:52;15.00;99.90
23991;DHT22;12205;50.600;4.608;2023-05-07T04:55:20;14.90;99.90
23991;DHT22;12205;50.600;4.608;2023-05-07T04:57:47;15.00;99.90
23991;DHT22;12205;50.600;4.608;2023-05-07T05:00:15;15.00;99.90
23991;DHT22;12205;50.600;4.608;2023-05-07T05:02:48;15.10;99.90
23991;DHT22;12205;50.600;4.608;2023-05-07T05:05:19;15.10;99.90
23991;DHT22;12205;50.600;4.608;2023-05-07T05:07:48;15.10;99.90
23991;DHT22;12205;50.600;4.608;2023-05-07T05:10:15;15.20;99.90
23991;DHT22;12205;50.600;4.608;2023-05-07T05:12:43;15.20;99.90
23991;DHT22;12205;50.600;4.608;2023-05-07T05:15:11;15.30;99.90
23991;DHT22;12205;50.600;4.608;2023-05-07T05:17:39;15.30;99.90
23991;DHT22;12205;50.600;4.608;2023-05-07T05:20:09;15.30;99.90
23991;DHT22;12205;50.600;4.608;2023-05-07T05:22:37;15.40;99.90
23991;DHT22;12205;50.600;4.608;2023-05-07T05:25:05;15.50;99.90
23991;DHT22;12205;50.600;4.608;2023-05-07T05:27:32;15.50;99.90
23991;DHT22;12205;50.600;4.608;2023-05-07T05:29:59;15.50;99.90
23991;DHT22;12205;50.600;4.608;2023-05-07T05:32:27;15.60;99.90
23991;DHT22;12205;50.600;4.608;2023-05-07T05:34:56;15.70;99.90
23991;DHT22;12205;50.600;4.608;2023-05-07T05:37:25;15.70;99.90
23991;DHT22;12205;50.600;4.608;2023-05-07T05:39:53;15.80;99.90
23991;DHT22;12205;50.600;4.608;2023-05-07T05:42:21;15.90;99.90
23991;DHT22;12205;50.600;4.608;2023-05-07T05:44:47;16.00;99.90
23991;DHT22;12205;50.600;4.608;2023-05-07T05:47:14;16.10;99.90
23991;DHT22;12205;50.600;4.608;2023-05-07T05:49:42;16.20;99.90
23991;DHT22;12205;50.600;4.608;2023-05-07T05:52:12;16.30;99.90
23991;DHT22;12205;50.600;4.608;2023-05-07T05:54:41;16.30;99.90
23991;DHT22;12205;50.600;4.608;2023-05-07T05:57:08;16.40;99.90
23991;DHT22;12205;50.600;4.608;2023-05-07T05:59:35;16.50;99.90
23991;DHT22;12205;50.600;4.608;2023-05-07T06:02:02;16.60;99.90
23991;DHT22;12205;50.600;4.608;2023-05-07T06:04:29;16.70;99.90
23991;DHT22;12205;50.600;4.608;2023-05-07T06:06:57;16.70;99.90
23991;DHT22;12205;50.600;4.608;2023-05-07T06:09:25;16.80;99.90
23991;DHT22;12205;50.600;4.608;2023-05-07T06:11:53;16.80;99.90
23991;DHT22;12205;50.600;4.608;2023-05-07T06:14:20;16.70;99.90
23991;DHT22;12205;50.600;4.608;2023-05-07T06:16:47;16.70;99.90
23991;DHT22;12205;50.600;4.608;2023-05-07T06:19:14;16.70;99.90
23991;DHT22;12205;50.600;4.608;2023-05-07T06:21:44;16.70;99.90
23991;DHT22;12205;50.600;4.608;2023-05-07T06:24:11;16.60;99.90
23991;DHT22;12205;50.600;4.608;2023-05-07T06:26:38;16.60;99.90
23991;DHT22;12205;50.600;4.608;2023-05-07T06:29:07;16.60;99.90
23991;DHT22;12205;50.600;4.608;2023-05-07T06:31:34;16.70;99.90
23991;DHT22;12205;50.600;4.608;2023-05-07T06:34:04;16.70;99.90
23991;DHT22;12205;50.600;4.608;2023-05-07T06:36:35;16.70;99.90
23991;DHT22;12205;50.600;4.608;2023-05-07T06:39:12;16.80;99.90
23991;DHT22;12205;50.600;4.608;2023-05-07T06:41:39;16.80;99.90
23991;DHT22;12205;50.600;4.608;2023-05-07T06:44:16;16.90;99.90
23991;DHT22;12205;50.600;4.608;2023-05-07T06:46:47;16.90;99.90
23991;DHT22;12205;50.600;4.608;2023-05-07T06:49:14;16.90;99.90
23991;DHT22;12205;50.600;4.608;2023-05-07T06:51:42;16.90;99.90
23991;DHT22;12205;50.600;4.608;2023-05-07T06:54:09;16.80;99.90
23991;DHT22;12205;50.600;4.608;2023-05-07T06:56:38;16.90;99.90
23991;DHT22;12205;50.600;4.608;2023-05-07T06:59:05;16.90;99.90
23991;DHT22;12205;50.600;4.608;2023-05-07T07:01:38;16.90;99.90
23991;DHT22;12205;50.600;4.608;2023-05-07T07:04:06;16.90;99.90
23991;DHT22;12205;50.600;4.608;2023-05-07T07:06:34;16.90;99.90
23991;DHT22;12205;50.600;4.608;2023-05-07T07:09:04;16.80;99.90
23991;DHT22;12205;50.600;4.608;2023-05-07T07:11:31;16.70;99.90
23991;DHT22;12205;50.600;4.608;2023-05-07T07:13:58;16.70;99.90
23991;DHT22;12205;50.600;4.608;2023-05-07T07:16:25;16.60;99.90
23991;DHT22;12205;50.600;4.608;2023-05-07T07:18:53;16.60;99.90
23991;DHT22;12205;50.600;4.608;2023-05-07T07:21:20;16.70;99.90
23991;DHT22;12205;50.600;4.608;2023-05-07T07:23:48;16.70;99.90
23991;DHT22;12205;50.600;4.608;2023-05-07T07:26:16;16.70;99.90
23991;DHT22;12205;50.600;4.608;2023-05-07T07:28:44;16.70;99.90
23991;DHT22;12205;50.600;4.608;2023-05-07T07:31:12;16.70;99.90
23991;DHT22;12205;50.600;4.608;2023-05-07T07:33:39;16.60;99.90
23991;DHT22;12205;50.600;4.608;2023-05-07T07:36:08;16.60;99.90
23991;DHT22;12205;50.600;4.608;2023-05-07T07:38:36;16.60;99.90
23991;DHT22;12205;50.600;4.608;2023-05-07T07:41:03;16.60;99.90
23991;DHT22;12205;50.600;4.608;2023-05-07T07:43:30;16.60;99.90
23991;DHT22;12205;50.600;4.608;2023-05-07T07:45:57;16.60;99.90
23991;DHT22;12205;50.600;4.608;2023-05-07T07:48:25;16.60;99.90
23991;DHT22;12205;50.600;4.608;2023-05-07T07:50:53;16.50;99.90
23991;DHT22;12205;50.600;4.608;2023-05-07T07:53:22;16.50;99.90
23991;DHT22;12205;50.600;4.608;2023-05-07T07:55:49;16.50;99.90
23991;DHT22;12205;50.600;4.608;2023-05-07T07:58:19;16.50;99.90
23991;DHT22;12205;50.600;4.608;2023-05-07T08:00:47;16.50;99.90
23991;DHT22;12205;50.600;4.608;2023-05-07T08:03:15;16.50;99.90
23991;DHT22;12205;50.600;4.608;2023-05-07T08:05:46;16.60;99.90
23991;DHT22;12205;50.600;4.608;2023-05-07T08:08:13;16.60;99.90
23991;DHT22;12205;50.600;4.608;2023-05-07T08:10:43;16.60;99.90
23991;DHT22;12205;50.600;4.608;2023-05-07T08:13:17;16.60;99.90
23991;DHT22;12205;50.600;4.608;2023-05-07T08:15:44;16.70;99.90
23991;DHT22;12205;50.600;4.608;2023-05-07T08:18:12;16.80;99.90
23991;DHT22;12205;50.600;4.608;2023-05-07T08:20:39;16.90;99.90
23991;DHT22;12205;50.600;4.608;2023-05-07T08:23:11;16.90;99.90
23991;DHT22;12205;50.600;4.608;2023-05-07T08:25:39;17.00;99.90
23991;DHT22;12205;50.600;4.608;2023-05-07T08:28:09;17.00;99.90
23991;DHT22;12205;50.600;4.608;2023-05-07T08:30:37;17.10;99.90
23991;DHT22;12205;50.600;4.608;2023-05-07T08:33:05;17.10;99.90
23991;DHT22;12205;50.600;4.608;2023-05-07T08:35:32;17.20;99.90
23991;DHT22;12205;50.600;4.608;2023-05-07T08:37:59;17.20;99.90
23991;DHT22;12205;50.600;4.608;2023-05-07T08:40:26;17.10;99.90
23991;DHT22;12205;50.600;4.608;2023-05-07T08:42:56;17.10;99.90
23991;DHT22;12205;50.600;4.608;2023-05-07T08:45:26;17.10;99.90
23991;DHT22;12205;50.600;4.608;2023-05-07T08:47:58;17.10;99.90
23991;DHT22;12205;50.600;4.608;2023-05-07T08:50:31;17.10;99.90
23991;DHT22;12205;50.600;4.608;2023-05-07T08:52:58;17.10;99.90
23991;DHT22;12205;50.600;4.608;2023-05-07T08:55:28;17.00;99.90
23991;DHT22;12205;50.600;4.608;2023-05-07T08:57:56;16.90;99.90
23991;DHT22;12205;50.600;4.608;2023-05-07T09:00:24;16.80;99.90
23991;DHT22;12205;50.600;4.608;2023-05-07T09:02:53;16.80;99.90
23991;DHT22;12205;50.600;4.608;2023-05-07T09:05:20;16.80;99.90
23991;DHT22;12205;50.600;4.608;2023-05-07T09:07:47;16.90;99.90
23991;DHT22;12205;50.600;4.608;2023-05-07T09:10:16;16.90;99.90
23991;DHT22;12205;50.600;4.608;2023-05-07T09:12:46;16.90;99.90
23991;DHT22;12205;50.600;4.608;2023-05-07T09:15:15;16.80;99.90
23991;DHT22;12205;50.600;4.608;2023-05-07T09:17:44;16.80;99.90
23991;DHT22;12205;50.600;4.608;2023-05-07T09:20:11;16.80;99.90
23991;DHT22;12205;50.600;4.608;2023-05-07T09:22:39;16.80;99.90
23991;DHT22;12205;50.600;4.608;2023-05-07T09:25:10;16.80;99.90
23991;DHT22;12205;50.600;4.608;2023-05-07T09:27:38;16.90;99.90
23991;DHT22;12205;50.600;4.608;2023-05-07T09:30:06;16.90;99.90
23991;DHT22;12205;50.600;4.608;2023-05-07T09:32:35;16.90;99.90
23991;DHT22;12205;50.600;4.608;2023-05-07T09:35:08;17.00;99.90
23991;DHT22;12205;50.600;4.608;2023-05-07T09:37:41;17.00;99.90
23991;DHT22;12205;50.600;4.608;2023-05-07T09:40:09;17.00;99.90
23991;DHT22;12205;50.600;4.608;2023-05-07T09:42:48;17.00;99.90
23991;DHT22;12205;50.600;4.608;2023-05-07T09:45:16;17.00;99.90
23991;DHT22;12205;50.600;4.608;2023-05-07T09:47:43;17.00;99.90
23991;DHT22;12205;50.600;4.608;2023-05-07T09:50:16;17.00;99.90
23991;DHT22;12205;50.600;4.608;2023-05-07T09:52:43;17.00;99.90
23991;DHT22;12205;50.600;4.608;2023-05-07T09:55:11;17.10;99.90
23991;DHT22;12205;50.600;4.608;2023-05-07T09:57:40;17.20;99.90
23991;DHT22;12205;50.600;4.608;2023-05-07T10:00:09;17.20;99.90
23991;DHT22;12205;50.600;4.608;2023-05-07T10:02:47;17.30;99.90
23991;DHT22;12205;50.600;4.608;2023-05-07T10:05:19;17.30;99.90
23991;DHT22;12205;50.600;4.608;2023-05-07T10:07:47;17.40;99.90
23991;DHT22;12205;50.600;4.608;2023-05-07T10:10:15;17.40;99.90
23991;DHT22;12205;50.600;4.608;2023-05-07T10:12:45;17.30;99.90
23991;DHT22;12205;50.600;4.608;2023-05-07T10:15:18;17.30;99.90
23991;DHT22;12205;50.600;4.608;2023-05-07T10:17:51;17.30;99.90
23991;DHT22;12205;50.600;4.608;2023-05-07T10:20:21;17.20;99.90
23991;DHT22;12205;50.600;4.608;2023-05-07T10:22:49;17.20;99.90
23991;DHT22;12205;50.600;4.608;2023-05-07T10:25:26;17.20;99.90
23991;DHT22;12205;50.600;4.608;2023-05-07T10:27:56;17.20;99.90
23991;DHT22;12205;50.600;4.608;2023-05-07T10:30:30;17.20;99.90
23991;DHT22;12205;50.600;4.608;2023-05-07T10:33:03;17.20;99.90
23991;DHT22;12205;50.600;4.608;2023-05-07T10:35:40;17.20;99.90
23991;DHT22;12205;50.600;4.608;2023-05-07T10:38:08;17.20;99.90
23991;DHT22;12205;50.600;4.608;2023-05-07T10:40:38;17.30;99.90
23991;DHT22;12205;50.600;4.608;2023-05-07T10:43:07;17.30;99.90
23991;DHT22;12205;50.600;4.608;2023-05-07T10:45:40;17.30;99.90
23991;DHT22;12205;50.600;4.608;2023-05-07T10:48:09;17.40;99.90
23991;DHT22;12205;50.600;4.608;2023-05-07T10:50:38;17.40;99.90
23991;DHT22;12205;50.600;4.608;2023-05-07T10:53:23;17.40;99.90
23991;DHT22;12205;50.600;4.608;2023-05-07T10:56:25;17.50;99.90
23991;DHT22;12205;50.600;4.608;2023-05-07T10:59:32;17.50;99.90
23991;DHT22;12205;50.600;4.608;2023-05-07T11:02:08;17.50;99.90
23991;DHT22;12205;50.600;4.608;2023-05-07T11:04:42;17.50;99.90
23991;DHT22;12205;50.600;4.608;2023-05-07T11:07:33;17.50;99.90
23991;DHT22;12205;50.600;4.608;2023-05-07T11:10:08;17.50;99.90
23991;DHT22;12205;50.600;4.608;2023-05-07T11:12:54;17.50;99.90
23991;DHT22;12205;50.600;4.608;2023-05-07T11:15:41;17.50;99.90
23991;DHT22;12205;50.600;4.608;2023-05-07T11:18:21;17.60;99.90
23991;DHT22;12205;50.600;4.608;2023-05-07T11:20:53;17.60;99.90
23991;DHT22;12205;50.600;4.608;2023-05-07T11:23:58;17.70;99.90
23991;DHT22;12205;50.600;4.608;2023-05-07T11:26:43;17.70;99.90
23991;DHT22;12205;50.600;4.608;2023-05-07T11:29:11;17.70;99.90
23991;DHT22;12205;50.600;4.608;2023-05-07T11:31:40;17.80;99.90
23991;DHT22;12205;50.600;4.608;2023-05-07T11:34:08;17.90;99.90
23991;DHT22;12205;50.600;4.608;2023-05-07T11:36:37;17.90;99.90
23991;DHT22;12205;50.600;4.608;2023-05-07T11:42:05;18.10;99.90
23991;DHT22;12205;50.600;4.608;2023-05-07T11:44:43;18.30;99.90
23991;DHT22;12205;50.600;4.608;2023-05-07T11:47:11;18.30;99.90
23991;DHT22;12205;50.600;4.608;2023-05-07T11:49:43;18.30;99.90
23991;DHT22;12205;50.600;4.608;2023-05-07T11:52:10;18.40;99.90
23991;DHT22;12205;50.600;4.608;2023-05-07T11:54:37;18.40;99.90
23991;DHT22;12205;50.600;4.608;2023-05-07T11:57:06;18.40;99.90
23991;DHT22;12205;50.600;4.608;2023-05-07T11:59:38;18.40;99.90
23991;DHT22;12205;50.600;4.608;2023-05-07T12:02:06;18.50;99.90
23991;DHT22;12205;50.600;4.608;2023-05-07T12:04:33;18.60;99.90
23991;DHT22;12205;50.600;4.608;2023-05-07T12:07:00;18.70;99.90
23991;DHT22;12205;50.600;4.608;2023-05-07T12:09:27;18.70;99.90
23991;DHT22;12205;50.600;4.608;2023-05-07T12:11:54;18.80;99.90
23991;DHT22;12205;50.600;4.608;2023-05-07T12:14:27;18.80;99.90
23991;DHT22;12205;50.600;4.608;2023-05-07T12:16:54;18.90;99.90
23991;DHT22;12205;50.600;4.608;2023-05-07T12:19:21;18.90;99.90
23991;DHT22;12205;50.600;4.608;2023-05-07T12:21:49;18.90;99.90
23991;DHT22;12205;50.600;4.608;2023-05-07T12:24:16;19.00;99.90
23991;DHT22;12205;50.600;4.608;2023-05-07T12:26:43;19.00;99.90
23991;DHT22;12205;50.600;4.608;2023-05-07T12:29:10;19.10;99.90
23991;DHT22;12205;50.600;4.608;2023-05-07T12:31:41;19.10;99.90
23991;DHT22;12205;50.600;4.608;2023-05-07T12:34:10;19.10;99.90
23991;DHT22;12205;50.600;4.608;2023-05-07T12:36:37;19.10;99.90
23991;DHT22;12205;50.600;4.608;2023-05-07T12:39:05;19.00;99.90
23991;DHT22;12205;50.600;4.608;2023-05-07T12:41:36;19.00;99.90
23991;DHT22;12205;50.600;4.608;2023-05-07T12:44:04;19.00;99.90
23991;DHT22;12205;50.600;4.608;2023-05-07T12:46:31;18.90;99.90
23991;DHT22;12205;50.600;4.608;2023-05-07T12:49:00;19.00;99.90
23991;DHT22;12205;50.600;4.608;2023-05-07T12:51:28;19.00;99.90
23991;DHT22;12205;50.600;4.608;2023-05-07T12:53:56;19.00;99.90
23991;DHT22;12205;50.600;4.608;2023-05-07T12:56:23;19.00;99.90
23991;DHT22;12205;50.600;4.608;2023-05-07T12:58:50;19.00;99.90
23991;DHT22;12205;50.600;4.608;2023-05-07T13:01:17;18.90;99.90
23991;DHT22;12205;50.600;4.608;2023-05-07T13:03:48;18.90;99.90
23991;DHT22;12205;50.600;4.608;2023-05-07T13:06:17;18.90;99.90
23991;DHT22;12205;50.600;4.608;2023-05-07T13:08:44;18.80;99.90
23991;DHT22;12205;50.600;4.608;2023-05-07T13:11:11;18.70;99.90
23991;DHT22;12205;50.600;4.608;2023-05-07T13:13:40;18.80;99.90
23991;DHT22;12205;50.600;4.608;2023-05-07T13:16:08;18.80;99.90
23991;DHT22;12205;50.600;4.608;2023-05-07T13:18:35;18.80;99.90
23991;DHT22;12205;50.600;4.608;2023-05-07T13:21:03;18.80;99.90
23991;DHT22;12205;50.600;4.608;2023-05-07T13:23:31;18.90;99.90
23991;DHT22;12205;50.600;4.608;2023-05-07T13:25:58;18.90;99.90
23991;DHT22;12205;50.600;4.608;2023-05-07T13:28:25;18.80;99.90
23991;DHT22;12205;50.600;4.608;2023-05-07T13:30:52;18.80;99.90
23991;DHT22;12205;50.600;4.608;2023-05-07T13:33:20;18.70;99.90
23991;DHT22;12205;50.600;4.608;2023-05-07T13:35:46;18.80;99.90
23991;DHT22;12205;50.600;4.608;2023-05-07T13:38:14;18.80;99.90
23991;DHT22;12205;50.600;4.608;2023-05-07T13:40:42;18.80;99.90
23991;DHT22;12205;50.600;4.608;2023-05-07T13:43:09;18.90;99.90
23991;DHT22;12205;50.600;4.608;2023-05-07T13:45:36;18.90;99.90
23991;DHT22;12205;50.600;4.608;2023-05-07T13:48:03;18.80;99.90
23991;DHT22;12205;50.600;4.608;2023-05-07T13:50:30;18.90;99.90
23991;DHT22;12205;50.600;4.608;2023-05-07T13:52:57;18.80;99.90
23991;DHT22;12205;50.600;4.608;2023-05-07T13:55:24;18.80;99.90
23991;DHT22;12205;50.600;4.608;2023-05-07T13:57:57;18.80;99.90
23991;DHT22;12205;50.600;4.608;2023-05-07T14:00:25;18.80;99.90
23991;DHT22;12205;50.600;4.608;2023-05-07T14:02:52;18.80;99.90
23991;DHT22;12205;50.600;4.608;2023-05-07T14:05:19;18.90;99.90
23991;DHT22;12205;50.600;4.608;2023-05-07T14:07:46;18.90;99.90
23991;DHT22;12205;50.600;4.608;2023-05-07T14:10:14;19.00;99.90
23991;DHT22;12205;50.600;4.608;2023-05-07T14:12:41;18.90;99.90
23991;DHT22;12205;50.600;4.608;2023-05-07T14:15:11;18.70;99.90
23991;DHT22;12205;50.600;4.608;2023-05-07T14:17:38;18.80;99.90
23991;DHT22;12205;50.600;4.608;2023-05-07T14:20:06;18.70;99.90
23991;DHT22;12205;50.600;4.608;2023-05-07T14:22:33;18.70;99.90
23991;DHT22;12205;50.600;4.608;2023-05-07T14:24:59;18.60;99.90
23991;DHT22;12205;50.600;4.608;2023-05-07T14:27:26;18.60;99.90
23991;DHT22;12205;50.600;4.608;2023-05-07T14:29:53;18.60;99.90
23991;DHT22;12205;50.600;4.608;2023-05-07T14:32:22;18.50;99.90
23991;DHT22;12205;50.600;4.608;2023-05-07T14:34:49;18.50;99.90
23991;DHT22;12205;50.600;4.608;2023-05-07T14:37:15;18.60;99.90
23991;DHT22;12205;50.600;4.608;2023-05-07T14:39:45;18.50;99.90
23991;DHT22;12205;50.600;4.608;2023-05-07T14:42:12;18.60;99.90
23991;DHT22;12205;50.600;4.608;2023-05-07T14:44:39;18.50;99.90
23991;DHT22;12205;50.600;4.608;2023-05-07T14:47:07;18.40;99.90
23991;DHT22;12205;50.600;4.608;2023-05-07T14:49:35;18.40;99.90
23991;DHT22;12205;50.600;4.608;2023-05-07T14:52:03;18.40;99.90
23991;DHT22;12205;50.600;4.608;2023-05-07T14:54:33;18.40;99.90
23991;DHT22;12205;50.600;4.608;2023-05-07T14:57:00;18.40;99.90
23991;DHT22;12205;50.600;4.608;2023-05-07T14:59:27;18.40;99.90
23991;DHT22;12205;50.600;4.608;2023-05-07T15:01:54;18.40;99.90
23991;DHT22;12205;50.600;4.608;2023-05-07T15:04:21;18.30;99.90
23991;DHT22;12205;50.600;4.608;2023-05-07T15:06:49;18.20;99.90
23991;DHT22;12205;50.600;4.608;2023-05-07T15:09:17;18.20;99.90
23991;DHT22;12205;50.600;4.608;2023-05-07T15:11:44;18.10;99.90
23991;DHT22;12205;50.600;4.608;2023-05-07T15:14:11;18.10;99.90
23991;DHT22;12205;50.600;4.608;2023-05-07T15:16:38;18.00;99.90
23991;DHT22;12205;50.600;4.608;2023-05-07T15:19:05;18.00;99.90
23991;DHT22;12205;50.600;4.608;2023-05-07T15:21:32;18.00;99.90
23991;DHT22;12205;50.600;4.608;2023-05-07T15:24:02;18.00;99.90
23991;DHT22;12205;50.600;4.608;2023-05-07T15:26:29;18.00;99.90
23991;DHT22;12205;50.600;4.608;2023-05-07T15:28:56;18.00;99.90
23991;DHT22;12205;50.600;4.608;2023-05-07T15:31:23;18.00;99.90
23991;DHT22;12205;50.600;4.608;2023-05-07T15:33:50;18.00;99.90
23991;DHT22;12205;50.600;4.608;2023-05-07T15:36:19;18.10;99.90
23991;DHT22;12205;50.600;4.608;2023-05-07T15:38:46;18.10;99.90
23991;DHT22;12205;50.600;4.608;2023-05-07T15:41:14;18.10;99.90
23991;DHT22;12205;50.600;4.608;2023-05-07T15:43:46;18.20;99.90